createdAt,value
2023-01-26T00:02:04.893Z,1323
2023-01-26T00:07:23.378Z,1314
2023-01-26T00:12:41.898Z,1306
2023-01-26T00:18:00.356Z,1305
2023-01-26T00:23:18.578Z,1295
2023-01-26T00:28:36.887Z,1294
2023-01-26T00:33:54.835Z,1291
2023-01-26T00:39:13.353Z,1289
2023-01-26T00:44:31.588Z,1284
2023-01-26T00:49:50.381Z,1277
2023-01-26T00:55:09.163Z,1279
2023-01-26T01:00:27.720Z,1280
2023-01-26T01:05:46.195Z,1278
2023-01-26T01:11:04.709Z,1270
2023-01-26T01:16:23.765Z,1269
2023-01-26T01:21:42.027Z,1286
2023-01-26T01:27:00.205Z,1285
2023-01-26T01:32:18.727Z,1296
2023-01-26T01:37:36.996Z,1302
2023-01-26T01:42:55.455Z,1311
2023-01-26T01:48:13.735Z,1312
2023-01-26T01:53:32.247Z,1313
2023-01-26T01:58:50.433Z,1301
2023-01-26T02:04:09.266Z,1295
2023-01-26T02:09:28.032Z,1290
2023-01-26T02:14:46.244Z,1282
2023-01-26T02:20:05.055Z,1273
2023-01-26T02:25:23.616Z,1268
2023-01-26T02:30:42.160Z,1271
2023-01-26T02:36:00.457Z,1265
2023-01-26T02:41:18.964Z,1261
2023-01-26T02:46:37.472Z,1253
2023-01-26T02:51:56.167Z,1249
2023-01-26T02:57:14.366Z,1235
2023-01-26T03:02:33.422Z,1221
2023-01-26T03:07:51.379Z,1217
2023-01-26T03:12:53.656Z,1225
2023-01-26T03:18:11.626Z,1222
2023-01-26T03:23:29.910Z,1219
2023-01-26T03:28:48.401Z,1218
2023-01-26T03:34:06.634Z,1213
2023-01-26T03:39:25.167Z,1214
2023-01-26T03:44:43.645Z,1214
2023-01-26T03:49:46.778Z,1214
2023-01-26T03:55:05.064Z,1209
2023-01-26T04:00:23.247Z,1200
2023-01-26T04:05:42.175Z,1196
2023-01-26T04:11:00.840Z,1191
2023-01-26T04:16:19.859Z,1197
2023-01-26T04:21:38.795Z,1196
2023-01-26T04:26:57.337Z,1164
2023-01-26T04:32:16.088Z,1171
2023-01-26T04:37:34.293Z,1180
2023-01-26T04:42:53.127Z,1177
2023-01-26T04:48:11.322Z,1168
2023-01-26T04:53:29.786Z,1174
2023-01-26T04:58:48.325Z,1172
2023-01-26T05:04:06.820Z,1154
2023-01-26T05:09:27.997Z,1162
2023-01-26T05:14:46.225Z,1189
2023-01-26T05:20:05.011Z,1182
2023-01-26T05:25:23.241Z,1175
2023-01-26T05:30:42.053Z,1182
2023-01-26T05:36:00.591Z,1195
2023-01-26T05:41:19.102Z,1071
2023-01-26T05:46:37.832Z,1043
2023-01-26T05:51:56.656Z,1062
2023-01-26T05:57:15.122Z,1083
2023-01-26T06:02:33.943Z,1073
2023-01-26T06:07:52.443Z,1062
2023-01-26T06:13:10.348Z,1058
2023-01-26T06:18:28.608Z,1045
2023-01-26T06:23:47.173Z,1038
2023-01-26T06:29:05.858Z,1030
2023-01-26T06:34:24.580Z,1019
2023-01-26T06:39:43.329Z,1002
2023-01-26T06:45:02.108Z,992
2023-01-26T06:50:20.614Z,986
2023-01-26T06:55:23.469Z,998
2023-01-26T07:00:41.420Z,992
2023-01-26T07:05:59.672Z,996
2023-01-26T07:11:17.923Z,985
2023-01-26T07:16:36.251Z,973
2023-01-26T07:21:55.314Z,975
2023-01-26T07:27:13.498Z,969
2023-01-26T07:32:31.454Z,966
2023-01-26T07:37:50.249Z,957
2023-01-26T07:43:08.729Z,942
2023-01-26T07:48:27.515Z,939
2023-01-26T07:53:46.058Z,941
2023-01-26T07:59:04.527Z,937
2023-01-26T08:04:23.050Z,935
2023-01-26T08:09:41.494Z,923
2023-01-26T08:14:59.992Z,924
2023-01-26T08:20:18.484Z,918
2023-01-26T08:25:36.698Z,907
2023-01-26T08:30:55.891Z,895
2023-01-26T08:36:14.328Z,893
2023-01-26T08:41:32.609Z,885
2023-01-26T08:46:51.349Z,884
2023-01-26T08:52:10.154Z,885
2023-01-26T08:57:28.730Z,878
2023-01-26T09:02:47.384Z,875
2023-01-26T09:08:06.530Z,873
2023-01-26T09:13:25.078Z,867
2023-01-26T09:18:43.590Z,858
2023-01-26T09:24:01.565Z,862
2023-01-26T09:29:20.074Z,867
2023-01-26T09:34:38.549Z,864
2023-01-26T09:39:56.798Z,860
2023-01-26T09:45:15.385Z,858
2023-01-26T09:50:33.921Z,857
2023-01-26T09:55:52.822Z,849
2023-01-26T10:01:11.317Z,842
2023-01-26T10:06:29.875Z,847
2023-01-26T10:11:48.641Z,845
2023-01-26T10:17:07.657Z,838
2023-01-26T10:22:26.118Z,832
2023-01-26T10:27:44.899Z,831
2023-01-26T10:33:03.119Z,817
2023-01-26T10:38:21.675Z,808
2023-01-26T10:43:45.992Z,806
2023-01-26T10:49:05.007Z,803
2023-01-26T10:54:26.420Z,796
2023-01-26T10:59:45.081Z,786
2023-01-26T11:05:03.313Z,784
2023-01-26T11:10:21.798Z,775
2023-01-26T11:15:40.537Z,768
2023-01-26T11:20:58.481Z,758
2023-01-26T11:26:16.996Z,758
2023-01-26T11:31:37.068Z,751
2023-01-26T11:36:58.196Z,742
2023-01-26T11:42:16.612Z,735
2023-01-26T11:47:35.407Z,728
2023-01-26T11:52:53.376Z,715
2023-01-26T11:58:12.035Z,718
2023-01-26T12:03:30.352Z,719
2023-01-26T12:08:49.617Z,713
2023-01-26T12:14:08.148Z,710
2023-01-26T12:19:26.907Z,705
2023-01-26T12:25:08.583Z,700
2023-01-26T12:30:38.549Z,694
2023-01-26T12:35:56.733Z,689
2023-01-26T12:41:15.258Z,684
2023-01-26T12:46:33.794Z,679
2023-01-26T12:51:52.047Z,677
2023-01-26T12:57:10.725Z,674
2023-01-26T13:02:29.289Z,663
2023-01-26T13:07:47.944Z,659
2023-01-26T13:13:06.395Z,660
2023-01-26T13:18:24.567Z,671
2023-01-26T13:23:43.096Z,688
2023-01-26T13:29:02.756Z,688
2023-01-26T13:34:21.478Z,684
2023-01-26T13:39:39.745Z,683
2023-01-26T13:44:57.841Z,685
2023-01-26T13:50:16.494Z,681
2023-01-26T13:55:35.242Z,679
2023-01-26T14:00:53.647Z,682
2023-01-26T14:06:12.481Z,690
2023-01-26T14:11:32.026Z,694
2023-01-26T14:16:50.612Z,702
2023-01-26T14:22:09.366Z,701
2023-01-26T14:27:27.863Z,746
2023-01-26T14:32:46.633Z,813
2023-01-26T14:38:05.106Z,756
2023-01-26T14:43:23.829Z,742
2023-01-26T14:48:42.609Z,723
2023-01-26T14:54:01.145Z,730
2023-01-26T14:59:19.631Z,711
2023-01-26T15:04:38.406Z,715
2023-01-26T15:09:56.858Z,750
2023-01-26T15:15:15.299Z,748
2023-01-26T15:20:33.812Z,753
2023-01-26T15:25:52.040Z,755
2023-01-26T15:31:11.141Z,752
2023-01-26T15:36:29.619Z,752
2023-01-26T15:41:48.418Z,753
2023-01-26T15:47:07.187Z,755
2023-01-26T15:52:25.729Z,758
2023-01-26T15:57:44.350Z,761
2023-01-26T16:03:03.092Z,763
2023-01-26T16:08:21.779Z,767
2023-01-26T16:13:40.302Z,781
2023-01-26T16:19:00.571Z,789
2023-01-26T16:24:19.049Z,804
2023-01-26T16:29:37.549Z,803
2023-01-26T16:34:56.086Z,800
2023-01-26T16:40:14.788Z,802
2023-01-26T16:45:33.317Z,809
2023-01-26T16:50:51.866Z,818
2023-01-26T16:56:10.101Z,821
2023-01-26T17:01:28.440Z,822
2023-01-26T17:06:47.926Z,821
2023-01-26T17:12:06.185Z,816
2023-01-26T17:17:24.529Z,839
2023-01-26T17:22:43.190Z,850
2023-01-26T17:28:03.234Z,860
2023-01-26T17:33:22.139Z,862
2023-01-26T17:38:40.911Z,859
2023-01-26T17:43:59.615Z,861
2023-01-26T17:49:18.386Z,860
2023-01-26T17:54:37.268Z,854
2023-01-26T17:59:56.006Z,849
2023-01-26T18:05:14.603Z,783
2023-01-26T18:10:33.315Z,782
2023-01-26T18:15:51.819Z,782
2023-01-26T18:20:54.397Z,780
2023-01-26T18:26:13.041Z,793
2023-01-26T18:31:32.011Z,805
2023-01-26T18:36:50.159Z,878
2023-01-26T18:42:13.111Z,870
2023-01-26T18:47:31.600Z,893
2023-01-26T18:52:50.302Z,906
2023-01-26T18:58:09.007Z,922
2023-01-26T19:03:27.517Z,953
2023-01-26T19:08:46.003Z,983
2023-01-26T19:14:04.509Z,1001
2023-01-26T19:19:22.505Z,1007
2023-01-26T19:24:25.450Z,1015
2023-01-26T19:29:44.200Z,1037
2023-01-26T19:35:03.094Z,1048
2023-01-26T19:40:21.318Z,1045
2023-01-26T19:45:40.594Z,1011
2023-01-26T19:50:59.756Z,1031
2023-01-26T19:56:18.763Z,1052
2023-01-26T20:01:37.435Z,1051
2023-01-26T20:06:55.504Z,1060
2023-01-26T20:12:14.252Z,1068
2023-01-26T20:17:32.928Z,1128
2023-01-26T20:22:51.623Z,1175
2023-01-26T20:28:10.294Z,1236
2023-01-26T20:33:29.059Z,1268
2023-01-26T20:38:48.105Z,1303
2023-01-26T20:44:06.527Z,1293
2023-01-26T20:49:25.277Z,1266
2023-01-26T20:54:43.550Z,1233
2023-01-26T21:00:01.737Z,1259
2023-01-26T21:05:19.751Z,1304
2023-01-26T21:10:38.288Z,1328
2023-01-26T21:15:56.547Z,1341
2023-01-26T21:21:15.193Z,1355
2023-01-26T21:26:33.681Z,1377
2023-01-26T21:31:52.483Z,1392
2023-01-26T21:37:11.276Z,1408
2023-01-26T21:42:29.267Z,1419
2023-01-26T21:47:48.406Z,1432
2023-01-26T21:53:06.902Z,1446
2023-01-26T21:58:25.425Z,1450
2023-01-26T22:03:44.103Z,1454
2023-01-26T22:09:03.120Z,1458
2023-01-26T22:14:21.343Z,1463
2023-01-26T22:19:39.860Z,1464
2023-01-26T22:24:58.129Z,1463
2023-01-26T22:30:16.285Z,1481
2023-01-26T22:35:34.781Z,1482
2023-01-26T22:40:53.244Z,1482
2023-01-26T22:46:11.807Z,1485
2023-01-26T22:51:30.400Z,1476
2023-01-26T22:56:51.717Z,1481
2023-01-26T23:02:10.042Z,1483
2023-01-26T23:07:28.258Z,1488
2023-01-26T23:12:46.434Z,1486
2023-01-26T23:18:05.211Z,1483
2023-01-26T23:23:23.442Z,1479
2023-01-26T23:28:26.286Z,1490
2023-01-26T23:33:44.804Z,1493
2023-01-26T23:39:02.802Z,1493
2023-01-26T23:44:20.992Z,1491
2023-01-26T23:49:39.102Z,1492
2023-01-26T23:54:57.569Z,1490
